Time;durP1;ratioP1;P1;durP2;ratioP2;P2;SDS_P1;SDS_P2;PMS_P1;PMS_P2;Temp;Humidity;BMP_temperature;BMP_pressure;BME280_temperature;BME280_humidity;BME280_pressure;Samples;Min_cycle;Max_cycle;Signal;HPM_P1;HPM_P2
2023/02/19 00:00:00;;;;;;;1.2;1.2;;;;;;;10.0;100.0;101560;;;;
2023/02/19 00:01:02;;;;;;;1.2;1.2;;;;;;;9.9;100.0;101570;;;;
2023/02/19 00:02:00;;;;;;;1.2;1.2;;;;;;;9.9;100.0;101570;;;;
2023/02/19 00:03:01;;;;;;;1.2;1.2;;;;;;;9.9;100.0;101570;;;;
2023/02/19 00:04:01;;;;;;;1.2;1.2;;;;;;;9.9;100.0;101570;;;;
2023/02/19 00:05:00;;;;;;;1.2;1.2;;;;;;;10.0;100.0;101570;;;;
2023/02/19 00:06:01;;;;;;;1.2;1.2;;;;;;;10.0;100.0;101570;;;;
2023/02/19 00:07:00;;;;;;;1.2;1.2;;;;;;;10.0;100.0;101570;;;;
2023/02/19 00:08:00;;;;;;;1.2;1.2;;;;;;;10.0;100.0;101570;;;;
2023/02/19 00:09:00;;;;;;;1.2;1.2;;;;;;;10.1;100.0;101570;;;;
2023/02/19 00:10:00;;;;;;;1.2;1.2;;;;;;;10.1;100.0;101570;;;;
2023/02/19 00:11:01;;;;;;;1.0;1.0;;;;;;;9.9;100.0;101570;;;;
2023/02/19 00:12:00;;;;;;;1.0;1.0;;;;;;;9.9;100.0;101570;;;;
2023/02/19 00:13:00;;;;;;;1.0;1.0;;;;;;;9.9;100.0;101570;;;;
2023/02/19 00:14:01;;;;;;;1.0;1.0;;;;;;;9.9;100.0;101570;;;;
2023/02/19 00:15:01;;;;;;;1.0;1.0;;;;;;;9.9;100.0;101560;;;;
2023/02/19 00:16:04;;;;;;;1.0;1.0;;;;;;;9.9;100.0;101560;;;;
2023/02/19 00:17:00;;;;;;;1.0;1.0;;;;;;;9.9;100.0;101560;;;;
2023/02/19 00:18:00;;;;;;;1.0;1.0;;;;;;;9.9;100.0;101560;;;;
2023/02/19 00:19:01;;;;;;;1.0;1.0;;;;;;;9.9;100.0;101560;;;;
2023/02/19 00:20:00;;;;;;;1.0;1.0;;;;;;;9.9;100.0;101560;;;;
2023/02/19 00:21:01;;;;;;;1.0;1.0;;;;;;;9.9;100.0;101560;;;;
2023/02/19 00:22:00;;;;;;;1.0;1.0;;;;;;;9.9;100.0;101560;;;;
2023/02/19 00:23:00;;;;;;;1.0;1.0;;;;;;;9.9;100.0;101560;;;;
2023/02/19 00:24:02;;;;;;;1.0;1.0;;;;;;;9.9;100.0;101560;;;;
2023/02/19 00:25:00;;;;;;;1.0;1.0;;;;;;;9.9;100.0;101560;;;;
2023/02/19 00:26:12;;;;;;;1.0;1.0;;;;;;;9.9;100.0;101560;;;;
2023/02/19 00:27:00;;;;;;;1.0;1.0;;;;;;;9.9;100.0;101560;;;;
2023/02/19 00:28:00;;;;;;;1.0;1.0;;;;;;;9.9;100.0;101560;;;;
2023/02/19 00:29:00;;;;;;;1.0;1.0;;;;;;;9.9;100.0;101570;;;;
2023/02/19 00:30:00;;;;;;;1.0;1.0;;;;;;;9.9;100.0;101570;;;;
2023/02/19 00:31:09;;;;;;;0.9;0.9;;;;;;;9.9;100.0;101570;;;;
2023/02/19 00:32:00;;;;;;;0.9;0.9;;;;;;;9.9;100.0;101570;;;;
2023/02/19 00:33:00;;;;;;;0.9;0.9;;;;;;;9.9;100.0;101560;;;;
2023/02/19 00:34:02;;;;;;;0.9;0.9;;;;;;;9.9;100.0;101560;;;;
2023/02/19 00:35:00;;;;;;;0.9;0.9;;;;;;;9.9;100.0;101560;;;;
2023/02/19 00:36:01;;;;;;;0.9;0.9;;;;;;;9.9;100.0;101560;;;;
2023/02/19 00:37:00;;;;;;;0.9;0.9;;;;;;;9.8;100.0;101570;;;;
2023/02/19 00:38:00;;;;;;;0.9;0.9;;;;;;;9.8;100.0;101570;;;;
2023/02/19 00:39:00;;;;;;;0.9;0.9;;;;;;;9.8;100.0;101570;;;;
2023/02/19 00:40:00;;;;;;;0.9;0.9;;;;;;;9.8;100.0;101570;;;;
2023/02/19 00:41:01;;;;;;;0.9;0.9;;;;;;;9.7;100.0;101570;;;;
2023/02/19 00:42:00;;;;;;;0.9;0.9;;;;;;;9.7;100.0;101570;;;;
2023/02/19 00:43:00;;;;;;;0.9;0.9;;;;;;;9.7;100.0;101570;;;;
2023/02/19 00:44:01;;;;;;;0.9;0.9;;;;;;;9.7;100.0;101570;;;;
2023/02/19 00:45:00;;;;;;;0.9;0.9;;;;;;;9.7;100.0;101570;;;;
2023/02/19 00:46:00;;;;;;;0.9;0.9;;;;;;;9.7;100.0;101570;;;;
2023/02/19 00:47:00;;;;;;;0.9;0.9;;;;;;;9.7;100.0;101570;;;;
2023/02/19 00:48:00;;;;;;;0.9;0.9;;;;;;;9.7;100.0;101570;;;;
2023/02/19 00:49:00;;;;;;;0.9;0.9;;;;;;;9.7;100.0;101580;;;;
2023/02/19 00:50:00;;;;;;;0.9;0.9;;;;;;;9.7;100.0;101580;;;;
2023/02/19 00:51:00;;;;;;;1.0;1.0;;;;;;;9.8;100.0;101570;;;;
2023/02/19 00:52:00;;;;;;;1.0;1.0;;;;;;;9.8;100.0;101570;;;;
2023/02/19 00:53:00;;;;;;;1.0;1.0;;;;;;;9.7;100.0;101570;;;;
2023/02/19 00:54:00;;;;;;;1.0;1.0;;;;;;;9.7;100.0;101570;;;;
2023/02/19 00:55:00;;;;;;;1.0;1.0;;;;;;;9.7;100.0;101570;;;;
2023/02/19 00:56:00;;;;;;;1.0;1.0;;;;;;;9.7;100.0;101570;;;;
2023/02/19 00:57:00;;;;;;;1.0;1.0;;;;;;;9.6;100.0;101580;;;;
2023/02/19 00:58:00;;;;;;;1.0;1.0;;;;;;;9.6;100.0;101580;;;;
2023/02/19 00:59:00;;;;;;;1.0;1.0;;;;;;;9.6;100.0;101580;;;;
2023/02/19 01:00:00;;;;;;;1.0;1.0;;;;;;;9.6;100.0;101580;;;;
2023/02/19 01:01:00;;;;;;;1.0;1.0;;;;;;;9.7;100.0;101580;;;;
2023/02/19 01:02:00;;;;;;;1.0;1.0;;;;;;;9.7;100.0;101580;;;;
2023/02/19 01:03:00;;;;;;;1.0;1.0;;;;;;;9.6;100.0;101580;;;;
2023/02/19 01:04:00;;;;;;;1.0;1.0;;;;;;;9.6;100.0;101580;;;;
2023/02/19 01:05:00;;;;;;;1.0;1.0;;;;;;;9.6;100.0;101580;;;;
2023/02/19 01:06:00;;;;;;;1.0;1.0;;;;;;;9.6;100.0;101580;;;;
2023/02/19 01:07:00;;;;;;;1.0;1.0;;;;;;;9.7;100.0;101580;;;;
2023/02/19 01:08:00;;;;;;;1.0;1.0;;;;;;;9.7;100.0;101580;;;;
2023/02/19 01:09:00;;;;;;;1.0;1.0;;;;;;;9.7;100.0;101570;;;;
2023/02/19 01:10:00;;;;;;;1.0;1.0;;;;;;;9.7;100.0;101570;;;;
2023/02/19 01:11:01;;;;;;;0.9;0.9;;;;;;;9.5;100.0;101580;;;;
2023/02/19 01:12:00;;;;;;;0.9;0.9;;;;;;;9.5;100.0;101580;;;;
2023/02/19 01:13:00;;;;;;;0.9;0.9;;;;;;;9.6;100.0;101580;;;;
2023/02/19 01:14:00;;;;;;;0.9;0.9;;;;;;;9.6;100.0;101580;;;;
2023/02/19 01:15:00;;;;;;;0.9;0.9;;;;;;;9.6;100.0;101580;;;;
2023/02/19 01:16:05;;;;;;;0.9;0.9;;;;;;;9.6;100.0;101580;;;;
2023/02/19 01:17:00;;;;;;;0.9;0.9;;;;;;;9.6;100.0;101580;;;;
2023/02/19 01:18:00;;;;;;;0.9;0.9;;;;;;;9.6;100.0;101580;;;;
2023/02/19 01:19:00;;;;;;;0.9;0.9;;;;;;;9.6;100.0;101580;;;;
2023/02/19 01:20:00;;;;;;;0.9;0.9;;;;;;;9.6;100.0;101580;;;;
2023/02/19 01:21:04;;;;;;;0.9;0.9;;;;;;;9.5;100.0;101590;;;;
2023/02/19 01:22:00;;;;;;;0.9;0.9;;;;;;;9.5;100.0;101590;;;;
2023/02/19 01:23:00;;;;;;;0.9;0.9;;;;;;;9.6;100.0;101590;;;;
2023/02/19 01:24:00;;;;;;;0.9;0.9;;;;;;;9.6;100.0;101590;;;;
2023/02/19 01:25:00;;;;;;;0.9;0.9;;;;;;;9.5;100.0;101590;;;;
2023/02/19 01:26:03;;;;;;;0.9;0.9;;;;;;;9.5;100.0;101590;;;;
2023/02/19 01:27:00;;;;;;;0.9;0.9;;;;;;;9.5;100.0;101580;;;;
2023/02/19 01:28:00;;;;;;;0.9;0.9;;;;;;;9.5;100.0;101580;;;;
2023/02/19 01:29:00;;;;;;;0.9;0.9;;;;;;;9.5;100.0;101600;;;;
2023/02/19 01:30:00;;;;;;;0.9;0.9;;;;;;;9.5;100.0;101600;;;;
2023/02/19 01:31:04;;;;;;;1.3;1.3;;;;;;;9.5;100.0;101600;;;;
2023/02/19 01:32:00;;;;;;;1.3;1.3;;;;;;;9.5;100.0;101600;;;;
2023/02/19 01:33:00;;;;;;;1.3;1.3;;;;;;;9.5;100.0;101600;;;;
2023/02/19 01:34:02;;;;;;;1.3;1.3;;;;;;;9.5;100.0;101600;;;;
2023/02/19 01:35:00;;;;;;;1.3;1.3;;;;;;;9.5;100.0;101600;;;;
2023/02/19 01:36:02;;;;;;;1.3;1.3;;;;;;;9.5;100.0;101600;;;;
2023/02/19 01:37:00;;;;;;;1.3;1.3;;;;;;;9.5;100.0;101610;;;;
2023/02/19 01:38:00;;;;;;;1.3;1.3;;;;;;;9.5;100.0;101610;;;;
2023/02/19 01:39:03;;;;;;;1.3;1.3;;;;;;;9.6;100.0;101600;;;;
2023/02/19 01:40:00;;;;;;;1.3;1.3;;;;;;;9.6;100.0;101600;;;;
2023/02/19 01:41:02;;;;;;;1.3;1.3;;;;;;;9.4;100.0;101600;;;;
2023/02/19 01:42:01;;;;;;;1.3;1.3;;;;;;;9.4;100.0;101600;;;;
2023/02/19 01:43:02;;;;;;;1.3;1.3;;;;;;;9.5;100.0;101600;;;;
2023/02/19 01:44:01;;;;;;;1.3;1.3;;;;;;;9.5;100.0;101600;;;;
2023/02/19 01:45:10;;;;;;;1.3;1.3;;;;;;;9.5;100.0;101600;;;;
2023/02/19 01:46:00;;;;;;;1.3;1.3;;;;;;;9.5;100.0;101600;;;;
2023/02/19 01:47:00;;;;;;;1.3;1.3;;;;;;;9.4;100.0;101600;;;;
2023/02/19 01:48:00;;;;;;;1.3;1.3;;;;;;;9.4;100.0;101600;;;;
2023/02/19 01:49:04;;;;;;;1.3;1.3;;;;;;;9.4;100.0;101600;;;;
2023/02/19 01:50:00;;;;;;;1.3;1.3;;;;;;;9.4;100.0;101600;;;;
2023/02/19 01:51:06;;;;;;;0.9;0.9;;;;;;;9.4;100.0;101600;;;;
2023/02/19 01:52:04;;;;;;;0.9;0.9;;;;;;;9.4;100.0;101600;;;;
2023/02/19 01:53:04;;;;;;;0.9;0.9;;;;;;;9.4;100.0;101610;;;;
2023/02/19 01:54:02;;;;;;;0.9;0.9;;;;;;;9.4;100.0;101610;;;;
2023/02/19 01:55:01;;;;;;;0.9;0.9;;;;;;;9.4;100.0;101610;;;;
2023/02/19 01:56:01;;;;;;;0.9;0.9;;;;;;;9.4;100.0;101610;;;;
2023/02/19 01:57:03;;;;;;;0.9;0.9;;;;;;;9.4;100.0;101610;;;;
2023/02/19 01:58:00;;;;;;;0.9;0.9;;;;;;;9.4;100.0;101610;;;;
2023/02/19 01:59:01;;;;;;;0.9;0.9;;;;;;;9.4;100.0;101610;;;;
2023/02/19 02:00:03;;;;;;;0.9;0.9;;;;;;;9.4;100.0;101610;;;;
2023/02/19 02:01:01;;;;;;;0.9;0.9;;;;;;;9.4;100.0;101610;;;;
2023/02/19 02:02:00;;;;;;;0.9;0.9;;;;;;;9.4;100.0;101610;;;;
2023/02/19 02:03:00;;;;;;;0.9;0.9;;;;;;;9.4;100.0;101600;;;;
2023/02/19 02:04:00;;;;;;;0.9;0.9;;;;;;;9.4;100.0;101600;;;;
2023/02/19 02:05:00;;;;;;;0.9;0.9;;;;;;;9.4;100.0;101600;;;;
2023/02/19 02:06:04;;;;;;;0.9;0.9;;;;;;;9.4;100.0;101600;;;;
2023/02/19 02:07:02;;;;;;;0.9;0.9;;;;;;;9.4;100.0;101600;;;;
2023/02/19 02:11:00;;;;;;;10.0;3.1;;;;;;;9.4;100.0;101600;;;;
2023/02/19 02:12:00;;;;;;;10.0;3.1;;;;;;;9.4;100.0;101600;;;;
2023/02/19 02:13:00;;;;;;;10.0;3.1;;;;;;;9.4;100.0;101600;;;;
2023/02/19 02:14:00;;;;;;;10.0;3.1;;;;;;;9.4;100.0;101600;;;;
2023/02/19 02:15:00;;;;;;;10.0;3.1;;;;;;;9.3;100.0;101600;;;;
2023/02/19 02:16:03;;;;;;;10.0;3.1;;;;;;;9.3;100.0;101600;;;;
2023/02/19 02:17:00;;;;;;;10.0;3.1;;;;;;;9.3;100.0;101600;;;;
2023/02/19 02:18:06;;;;;;;10.0;3.1;;;;;;;9.3;100.0;101600;;;;
2023/02/19 02:19:01;;;;;;;10.0;3.1;;;;;;;9.4;100.0;101600;;;;
2023/02/19 02:20:09;;;;;;;10.0;3.1;;;;;;;9.4;100.0;101600;;;;
2023/02/19 02:21:11;;;;;;;10.0;3.1;;;;;;;9.4;100.0;101590;;;;
2023/02/19 02:22:06;;;;;;;10.0;3.1;;;;;;;9.4;100.0;101590;;;;
2023/02/19 02:23:07;;;;;;;10.0;3.1;;;;;;;9.4;100.0;101590;;;;
2023/02/19 02:24:10;;;;;;;10.0;3.1;;;;;;;9.4;100.0;101590;;;;
2023/02/19 02:25:01;;;;;;;10.0;3.1;;;;;;;9.4;100.0;101600;;;;
2023/02/19 02:26:01;;;;;;;10.0;3.1;;;;;;;9.4;100.0;101600;;;;
2023/02/19 02:27:00;;;;;;;10.0;3.1;;;;;;;9.3;100.0;101600;;;;
2023/02/19 02:28:07;;;;;;;10.0;3.1;;;;;;;9.3;100.0;101600;;;;
2023/02/19 02:29:03;;;;;;;10.0;3.1;;;;;;;9.2;100.0;101600;;;;
2023/02/19 02:30:10;;;;;;;0.8;0.8;;;;;;;9.2;100.0;101600;;;;
2023/02/19 02:31:03;;;;;;;0.8;0.8;;;;;;;9.3;100.0;101600;;;;
2023/02/19 02:32:06;;;;;;;0.8;0.8;;;;;;;9.3;100.0;101600;;;;
2023/02/19 02:33:05;;;;;;;0.8;0.8;;;;;;;9.3;100.0;101610;;;;
2023/02/19 02:34:03;;;;;;;0.8;0.8;;;;;;;9.3;100.0;101610;;;;
2023/02/19 02:35:04;;;;;;;0.8;0.8;;;;;;;9.3;100.0;101610;;;;
2023/02/19 02:36:10;;;;;;;0.8;0.8;;;;;;;9.3;100.0;101610;;;;
2023/02/19 02:37:01;;;;;;;0.8;0.8;;;;;;;9.4;100.0;101610;;;;
2023/02/19 02:38:03;;;;;;;0.8;0.8;;;;;;;9.4;100.0;101610;;;;
2023/02/19 02:39:03;;;;;;;0.8;0.8;;;;;;;9.4;100.0;101610;;;;
2023/02/19 02:40:01;;;;;;;0.8;0.8;;;;;;;9.4;100.0;101610;;;;
2023/02/19 02:41:01;;;;;;;0.8;0.8;;;;;;;9.4;100.0;101610;;;;
2023/02/19 02:43:00;;;;;;;0.8;0.8;;;;;;;9.4;100.0;101610;;;;
2023/02/19 02:44:00;;;;;;;0.8;0.8;;;;;;;9.4;100.0;101610;;;;
2023/02/19 02:46:00;;;;;;;0.8;0.8;;;;;;;9.4;100.0;101610;;;;
2023/02/19 02:47:02;;;;;;;0.8;0.8;;;;;;;9.4;100.0;101610;;;;
2023/02/19 02:48:05;;;;;;;0.8;0.8;;;;;;;9.4;100.0;101610;;;;
2023/02/19 02:49:04;;;;;;;0.8;0.8;;;;;;;9.3;100.0;101600;;;;
2023/02/19 02:50:08;;;;;;;0.8;0.8;;;;;;;9.3;100.0;101600;;;;
2023/02/19 02:51:00;;;;;;;1.0;1.0;;;;;;;9.2;100.0;101610;;;;
2023/02/19 02:55:01;;;;;;;1.0;1.0;;;;;;;9.2;100.0;101610;;;;
2023/02/19 02:55:02;;;;;;;1.0;1.0;;;;;;;9.3;100.0;101610;;;;
2023/02/19 02:56:00;;;;;;;1.0;1.0;;;;;;;9.3;100.0;101610;;;;
2023/02/19 02:57:01;;;;;;;1.0;1.0;;;;;;;9.4;100.0;101610;;;;
2023/02/19 02:58:00;;;;;;;1.0;1.0;;;;;;;9.4;100.0;101610;;;;
2023/02/19 02:59:01;;;;;;;1.0;1.0;;;;;;;9.2;100.0;101610;;;;
2023/02/19 03:00:00;;;;;;;1.0;1.0;;;;;;;9.2;100.0;101610;;;;
2023/02/19 03:02:11;;;;;;;1.0;1.0;;;;;;;9.3;100.0;101620;;;;
2023/02/19 03:03:00;;;;;;;1.0;1.0;;;;;;;9.2;100.0;101630;;;;
2023/02/19 03:04:02;;;;;;;1.0;1.0;;;;;;;9.2;100.0;101630;;;;
2023/02/19 03:06:02;;;;;;;1.0;1.0;;;;;;;9.3;100.0;101620;;;;
2023/02/19 03:07:04;;;;;;;1.0;1.0;;;;;;;9.2;100.0;101620;;;;
2023/02/19 03:08:10;;;;;;;1.0;1.0;;;;;;;9.2;100.0;101620;;;;
2023/02/19 03:09:06;;;;;;;1.0;1.0;;;;;;;9.3;100.0;101620;;;;
2023/02/19 03:10:02;;;;;;;0.9;0.9;;;;;;;9.3;100.0;101620;;;;
2023/02/19 03:19:17;;;;;;;0.9;0.9;;;;;;;9.2;100.0;101630;;;;
2023/02/19 03:20:02;;;;;;;0.9;0.9;;;;;;;9.1;100.0;101630;;;;
2023/02/19 03:21:01;;;;;;;0.9;0.9;;;;;;;9.2;100.0;101630;;;;
2023/02/19 03:22:10;;;;;;;0.9;0.9;;;;;;;9.2;100.0;101630;;;;
2023/02/19 03:23:01;;;;;;;0.9;0.9;;;;;;;9.2;100.0;101640;;;;
2023/02/19 03:26:03;;;;;;;0.9;0.9;;;;;;;9.2;100.0;101630;;;;
2023/02/19 03:27:02;;;;;;;0.9;0.9;;;;;;;9.2;100.0;101630;;;;
2023/02/19 03:28:01;;;;;;;0.9;0.9;;;;;;;9.2;100.0;101630;;;;
2023/02/19 03:30:04;;;;;;;1.1;1.1;;;;;;;9.1;100.0;101640;;;;
2023/02/19 03:31:00;;;;;;;1.1;1.1;;;;;;;9.2;100.0;101630;;;;
2023/02/19 03:32:03;;;;;;;1.1;1.1;;;;;;;9.2;100.0;101630;;;;
2023/02/19 03:33:00;;;;;;;1.1;1.1;;;;;;;9.1;100.0;101630;;;;
2023/02/19 03:34:02;;;;;;;1.1;1.1;;;;;;;9.1;100.0;101630;;;;
2023/02/19 03:35:03;;;;;;;1.1;1.1;;;;;;;9.2;100.0;101630;;;;
2023/02/19 03:36:03;;;;;;;1.1;1.1;;;;;;;9.2;100.0;101630;;;;
2023/02/19 03:37:05;;;;;;;1.1;1.1;;;;;;;9.2;100.0;101640;;;;
2023/02/19 03:38:05;;;;;;;1.1;1.1;;;;;;;9.2;100.0;101640;;;;
2023/02/19 03:39:03;;;;;;;1.1;1.1;;;;;;;9.1;100.0;101640;;;;
2023/02/19 03:40:00;;;;;;;1.1;1.1;;;;;;;9.1;100.0;101640;;;;
2023/02/19 03:41:06;;;;;;;1.1;1.1;;;;;;;9.1;100.0;101640;;;;
2023/02/19 03:42:05;;;;;;;1.1;1.1;;;;;;;9.1;100.0;101640;;;;
2023/02/19 03:43:00;;;;;;;1.1;1.1;;;;;;;9.2;100.0;101630;;;;
2023/02/19 03:44:10;;;;;;;1.1;1.1;;;;;;;9.2;100.0;101630;;;;
2023/02/19 03:45:06;;;;;;;1.1;1.1;;;;;;;9.2;100.0;101650;;;;
2023/02/19 03:46:00;;;;;;;1.1;1.1;;;;;;;9.2;100.0;101650;;;;
2023/02/19 03:47:07;;;;;;;1.1;1.1;;;;;;;9.3;100.0;101650;;;;
2023/02/19 03:48:10;;;;;;;1.1;1.1;;;;;;;9.3;100.0;101650;;;;
2023/02/19 03:49:03;;;;;;;1.1;1.1;;;;;;;9.2;100.0;101660;;;;
2023/02/19 03:50:10;;;;;;;1.0;1.0;;;;;;;9.2;100.0;101660;;;;
2023/02/19 03:51:04;;;;;;;1.0;1.0;;;;;;;9.2;100.0;101650;;;;
2023/02/19 03:52:10;;;;;;;1.0;1.0;;;;;;;9.2;100.0;101650;;;;
2023/02/19 03:53:01;;;;;;;1.0;1.0;;;;;;;9.2;100.0;101660;;;;
2023/02/19 03:54:10;;;;;;;1.0;1.0;;;;;;;9.2;100.0;101660;;;;
2023/02/19 03:55:10;;;;;;;1.0;1.0;;;;;;;9.2;100.0;101660;;;;
2023/02/19 03:56:10;;;;;;;1.0;1.0;;;;;;;9.2;100.0;101660;;;;
2023/02/19 03:57:03;;;;;;;1.0;1.0;;;;;;;9.2;100.0;101660;;;;
2023/02/19 03:58:03;;;;;;;1.0;1.0;;;;;;;9.2;100.0;101660;;;;
2023/02/19 03:59:03;;;;;;;1.0;1.0;;;;;;;9.1;100.0;101660;;;;
2023/02/19 04:00:10;;;;;;;1.0;1.0;;;;;;;9.1;100.0;101660;;;;
2023/02/19 04:01:11;;;;;;;1.0;1.0;;;;;;;9.2;100.0;101660;;;;
2023/02/19 04:02:04;;;;;;;1.0;1.0;;;;;;;9.2;100.0;101660;;;;
2023/02/19 04:03:06;;;;;;;1.0;1.0;;;;;;;9.3;100.0;101670;;;;
2023/02/19 04:04:05;;;;;;;1.0;1.0;;;;;;;9.3;100.0;101670;;;;
2023/02/19 04:05:03;;;;;;;1.0;1.0;;;;;;;9.2;100.0;101670;;;;
2023/02/19 04:06:02;;;;;;;1.0;1.0;;;;;;;9.2;100.0;101670;;;;
2023/02/19 04:07:00;;;;;;;1.0;1.0;;;;;;;9.2;100.0;101670;;;;
2023/02/19 04:08:05;;;;;;;1.0;1.0;;;;;;;9.2;100.0;101670;;;;
2023/02/19 04:09:02;;;;;;;1.0;1.0;;;;;;;9.2;100.0;101680;;;;
2023/02/19 04:10:01;;;;;;;0.9;0.9;;;;;;;9.2;100.0;101680;;;;
2023/02/19 04:11:00;;;;;;;0.9;0.9;;;;;;;9.2;100.0;101680;;;;
2023/02/19 04:12:00;;;;;;;0.9;0.9;;;;;;;9.2;100.0;101680;;;;
2023/02/19 04:13:03;;;;;;;0.9;0.9;;;;;;;9.2;100.0;101690;;;;
2023/02/19 04:14:04;;;;;;;0.9;0.9;;;;;;;9.2;100.0;101690;;;;
2023/02/19 04:15:03;;;;;;;0.9;0.9;;;;;;;9.2;100.0;101690;;;;
2023/02/19 04:16:02;;;;;;;0.9;0.9;;;;;;;9.2;100.0;101690;;;;
2023/02/19 04:17:02;;;;;;;0.9;0.9;;;;;;;9.2;100.0;101690;;;;
2023/02/19 04:18:04;;;;;;;0.9;0.9;;;;;;;9.2;100.0;101690;;;;
2023/02/19 04:19:04;;;;;;;0.9;0.9;;;;;;;9.2;100.0;101700;;;;
2023/02/19 04:20:02;;;;;;;0.9;0.9;;;;;;;9.2;100.0;101700;;;;
2023/02/19 04:21:02;;;;;;;0.9;0.9;;;;;;;9.3;100.0;101690;;;;
2023/02/19 04:22:00;;;;;;;0.9;0.9;;;;;;;9.3;100.0;101690;;;;
2023/02/19 04:23:00;;;;;;;0.9;0.9;;;;;;;9.2;100.0;101700;;;;
2023/02/19 04:24:05;;;;;;;0.9;0.9;;;;;;;9.2;100.0;101700;;;;
2023/02/19 04:25:00;;;;;;;0.9;0.9;;;;;;;9.1;100.0;101690;;;;
2023/02/19 04:26:02;;;;;;;0.9;0.9;;;;;;;9.1;100.0;101690;;;;
2023/02/19 04:27:01;;;;;;;0.9;0.9;;;;;;;9.2;100.0;101690;;;;
2023/02/19 04:28:01;;;;;;;0.9;0.9;;;;;;;9.2;100.0;101690;;;;
2023/02/19 04:29:00;;;;;;;0.9;0.9;;;;;;;9.2;100.0;101700;;;;
2023/02/19 04:30:00;;;;;;;1.8;1.8;;;;;;;9.2;100.0;101700;;;;
2023/02/19 04:31:00;;;;;;;1.8;1.8;;;;;;;9.3;100.0;101710;;;;
2023/02/19 04:32:00;;;;;;;1.8;1.8;;;;;;;9.3;100.0;101710;;;;
2023/02/19 04:33:00;;;;;;;1.8;1.8;;;;;;;9.3;100.0;101710;;;;
2023/02/19 04:34:02;;;;;;;1.8;1.8;;;;;;;9.3;100.0;101710;;;;
2023/02/19 04:35:00;;;;;;;1.8;1.8;;;;;;;9.2;100.0;101710;;;;
2023/02/19 04:36:00;;;;;;;1.8;1.8;;;;;;;9.2;100.0;101710;;;;
2023/02/19 04:37:00;;;;;;;1.8;1.8;;;;;;;9.3;100.0;101710;;;;
2023/02/19 04:38:00;;;;;;;1.8;1.8;;;;;;;9.3;100.0;101710;;;;
2023/02/19 04:39:00;;;;;;;1.8;1.8;;;;;;;9.2;100.0;101710;;;;
2023/02/19 04:40:00;;;;;;;1.8;1.8;;;;;;;9.2;100.0;101710;;;;
2023/02/19 04:41:00;;;;;;;1.8;1.8;;;;;;;9.2;100.0;101710;;;;
2023/02/19 04:42:00;;;;;;;1.8;1.8;;;;;;;9.2;100.0;101710;;;;
2023/02/19 04:43:00;;;;;;;1.8;1.8;;;;;;;9.2;100.0;101710;;;;
2023/02/19 04:44:00;;;;;;;1.8;1.8;;;;;;;9.2;100.0;101710;;;;
2023/02/19 04:45:00;;;;;;;1.8;1.8;;;;;;;9.2;100.0;101720;;;;
2023/02/19 04:46:01;;;;;;;1.8;1.8;;;;;;;9.2;100.0;101720;;;;
2023/02/19 04:47:00;;;;;;;1.8;1.8;;;;;;;9.2;100.0;101720;;;;
2023/02/19 04:48:00;;;;;;;1.8;1.8;;;;;;;9.2;100.0;101720;;;;
2023/02/19 04:49:00;;;;;;;1.8;1.8;;;;;;;9.2;100.0;101730;;;;
2023/02/19 04:50:00;;;;;;;1.0;1.0;;;;;;;9.2;100.0;101730;;;;
2023/02/19 04:51:03;;;;;;;1.0;1.0;;;;;;;9.2;100.0;101730;;;;
2023/02/19 04:52:00;;;;;;;1.0;1.0;;;;;;;9.2;100.0;101730;;;;
2023/02/19 04:53:00;;;;;;;1.0;1.0;;;;;;;9.2;100.0;101750;;;;
2023/02/19 04:54:00;;;;;;;1.0;1.0;;;;;;;9.2;100.0;101750;;;;
2023/02/19 04:55:00;;;;;;;1.0;1.0;;;;;;;9.2;100.0;101750;;;;
2023/02/19 04:56:09;;;;;;;1.0;1.0;;;;;;;9.2;100.0;101750;;;;
2023/02/19 04:57:00;;;;;;;1.0;1.0;;;;;;;9.3;100.0;101740;;;;
2023/02/19 04:58:00;;;;;;;1.0;1.0;;;;;;;9.3;100.0;101740;;;;
2023/02/19 04:59:00;;;;;;;1.0;1.0;;;;;;;9.2;100.0;101760;;;;
2023/02/19 05:00:00;;;;;;;1.0;1.0;;;;;;;9.2;100.0;101760;;;;
2023/02/19 05:01:00;;;;;;;1.0;1.0;;;;;;;9.2;100.0;101760;;;;
2023/02/19 05:02:00;;;;;;;1.0;1.0;;;;;;;9.2;100.0;101760;;;;
2023/02/19 05:03:00;;;;;;;1.0;1.0;;;;;;;9.2;100.0;101760;;;;
2023/02/19 05:04:00;;;;;;;1.0;1.0;;;;;;;9.2;100.0;101760;;;;
2023/02/19 05:05:00;;;;;;;1.0;1.0;;;;;;;9.2;100.0;101770;;;;
2023/02/19 05:06:02;;;;;;;1.0;1.0;;;;;;;9.2;100.0;101770;;;;
2023/02/19 05:07:00;;;;;;;1.0;1.0;;;;;;;9.2;100.0;101780;;;;
2023/02/19 05:08:00;;;;;;;1.0;1.0;;;;;;;9.2;100.0;101780;;;;
2023/02/19 05:09:00;;;;;;;1.0;1.0;;;;;;;9.2;100.0;101770;;;;
2023/02/19 05:10:00;;;;;;;1.2;1.2;;;;;;;9.2;100.0;101770;;;;
2023/02/19 05:11:01;;;;;;;1.2;1.2;;;;;;;9.2;100.0;101780;;;;
2023/02/19 05:12:00;;;;;;;1.2;1.2;;;;;;;9.2;100.0;101780;;;;
2023/02/19 05:13:00;;;;;;;1.2;1.2;;;;;;;9.2;100.0;101770;;;;
2023/02/19 05:14:00;;;;;;;1.2;1.2;;;;;;;9.2;100.0;101770;;;;
2023/02/19 05:15:00;;;;;;;1.2;1.2;;;;;;;9.3;100.0;101780;;;;
2023/02/19 05:16:02;;;;;;;1.2;1.2;;;;;;;9.3;100.0;101780;;;;
2023/02/19 05:17:00;;;;;;;1.2;1.2;;;;;;;9.2;100.0;101780;;;;
2023/02/19 05:18:00;;;;;;;1.2;1.2;;;;;;;9.2;100.0;101780;;;;
2023/02/19 05:19:00;;;;;;;1.2;1.2;;;;;;;9.2;100.0;101790;;;;
2023/02/19 05:20:00;;;;;;;1.2;1.2;;;;;;;9.2;100.0;101790;;;;
2023/02/19 05:21:00;;;;;;;1.2;1.2;;;;;;;9.2;100.0;101790;;;;
2023/02/19 05:22:00;;;;;;;1.2;1.2;;;;;;;9.2;100.0;101790;;;;
2023/02/19 05:23:00;;;;;;;1.2;1.2;;;;;;;9.2;100.0;101790;;;;
2023/02/19 05:24:00;;;;;;;1.2;1.2;;;;;;;9.2;100.0;101790;;;;
2023/02/19 05:25:00;;;;;;;1.2;1.2;;;;;;;9.2;100.0;101780;;;;
2023/02/19 05:26:05;;;;;;;1.2;1.2;;;;;;;9.2;100.0;101780;;;;
2023/02/19 05:27:00;;;;;;;1.2;1.2;;;;;;;9.2;100.0;101780;;;;
2023/02/19 05:28:15;;;;;;;1.2;1.2;;;;;;;9.2;100.0;101780;;;;
2023/02/19 05:29:00;;;;;;;1.2;1.2;;;;;;;9.2;100.0;101780;;;;
2023/02/19 05:30:00;;;;;;;1.0;1.0;;;;;;;9.2;100.0;101780;;;;
2023/02/19 05:31:03;;;;;;;1.0;1.0;;;;;;;9.2;100.0;101780;;;;
2023/02/19 05:32:00;;;;;;;1.0;1.0;;;;;;;9.2;100.0;101780;;;;
2023/02/19 05:33:00;;;;;;;1.0;1.0;;;;;;;9.2;100.0;101780;;;;
2023/02/19 05:34:00;;;;;;;1.0;1.0;;;;;;;9.2;100.0;101780;;;;
2023/02/19 05:35:00;;;;;;;1.0;1.0;;;;;;;9.1;100.0;101790;;;;
2023/02/19 05:36:03;;;;;;;1.0;1.0;;;;;;;9.1;100.0;101790;;;;
2023/02/19 05:37:00;;;;;;;1.0;1.0;;;;;;;9.0;100.0;101790;;;;
2023/02/19 05:38:00;;;;;;;1.0;1.0;;;;;;;9.0;100.0;101790;;;;
2023/02/19 05:39:00;;;;;;;1.0;1.0;;;;;;;9.1;100.0;101790;;;;
2023/02/19 05:40:00;;;;;;;1.0;1.0;;;;;;;9.1;100.0;101790;;;;
2023/02/19 05:41:07;;;;;;;1.0;1.0;;;;;;;9.1;100.0;101790;;;;
2023/02/19 05:42:00;;;;;;;1.0;1.0;;;;;;;9.1;100.0;101790;;;;
2023/02/19 05:43:00;;;;;;;1.0;1.0;;;;;;;9.1;100.0;101790;;;;
2023/02/19 05:44:00;;;;;;;1.0;1.0;;;;;;;9.1;100.0;101790;;;;
2023/02/19 05:45:00;;;;;;;1.0;1.0;;;;;;;9.1;100.0;101790;;;;
2023/02/19 05:46:00;;;;;;;1.0;1.0;;;;;;;9.1;100.0;101790;;;;
2023/02/19 05:47:00;;;;;;;1.0;1.0;;;;;;;9.0;100.0;101790;;;;
2023/02/19 05:48:00;;;;;;;1.0;1.0;;;;;;;9.0;100.0;101790;;;;
2023/02/19 05:49:00;;;;;;;1.0;1.0;;;;;;;9.1;100.0;101790;;;;
2023/02/19 05:50:00;;;;;;;0.8;0.8;;;;;;;9.1;100.0;101790;;;;
2023/02/19 05:51:02;;;;;;;0.8;0.8;;;;;;;9.1;100.0;101790;;;;
2023/02/19 05:52:00;;;;;;;0.8;0.8;;;;;;;9.1;100.0;101790;;;;
2023/02/19 05:53:00;;;;;;;0.8;0.8;;;;;;;9.0;100.0;101800;;;;
2023/02/19 05:54:00;;;;;;;0.8;0.8;;;;;;;9.0;100.0;101800;;;;
2023/02/19 05:55:00;;;;;;;0.8;0.8;;;;;;;9.1;100.0;101800;;;;
2023/02/19 05:56:00;;;;;;;0.8;0.8;;;;;;;9.1;100.0;101800;;;;
2023/02/19 05:57:00;;;;;;;0.8;0.8;;;;;;;9.0;100.0;101800;;;;
2023/02/19 05:58:00;;;;;;;0.8;0.8;;;;;;;9.0;100.0;101800;;;;
2023/02/19 05:59:02;;;;;;;0.8;0.8;;;;;;;9.0;100.0;101800;;;;
2023/02/19 06:00:00;;;;;;;0.8;0.8;;;;;;;9.0;100.0;101800;;;;
2023/02/19 06:01:00;;;;;;;0.8;0.8;;;;;;;9.0;100.0;101800;;;;
2023/02/19 06:02:00;;;;;;;0.8;0.8;;;;;;;9.0;100.0;101800;;;;
2023/02/19 06:03:00;;;;;;;0.8;0.8;;;;;;;9.0;100.0;101800;;;;
2023/02/19 06:04:00;;;;;;;0.8;0.8;;;;;;;9.0;100.0;101800;;;;
2023/02/19 06:05:00;;;;;;;0.8;0.8;;;;;;;8.9;100.0;101790;;;;
2023/02/19 06:06:02;;;;;;;0.8;0.8;;;;;;;8.9;100.0;101790;;;;
2023/02/19 06:07:00;;;;;;;0.8;0.8;;;;;;;9.0;100.0;101800;;;;
2023/02/19 06:08:00;;;;;;;0.8;0.8;;;;;;;9.0;100.0;101800;;;;
2023/02/19 06:09:00;;;;;;;0.8;0.8;;;;;;;9.0;100.0;101810;;;;
2023/02/19 06:10:00;;;;;;;0.9;0.9;;;;;;;9.0;100.0;101810;;;;
2023/02/19 06:11:00;;;;;;;0.9;0.9;;;;;;;9.0;100.0;101810;;;;
2023/02/19 06:12:00;;;;;;;0.9;0.9;;;;;;;9.0;100.0;101810;;;;
2023/02/19 06:13:00;;;;;;;0.9;0.9;;;;;;;8.9;100.0;101810;;;;
2023/02/19 06:14:00;;;;;;;0.9;0.9;;;;;;;8.9;100.0;101810;;;;
2023/02/19 06:15:00;;;;;;;0.9;0.9;;;;;;;8.9;100.0;101810;;;;
2023/02/19 06:16:04;;;;;;;0.9;0.9;;;;;;;8.9;100.0;101810;;;;
2023/02/19 06:17:00;;;;;;;0.9;0.9;;;;;;;8.9;100.0;101820;;;;
2023/02/19 06:18:01;;;;;;;0.9;0.9;;;;;;;8.9;100.0;101820;;;;
2023/02/19 06:19:01;;;;;;;0.9;0.9;;;;;;;8.9;100.0;101820;;;;
2023/02/19 06:20:00;;;;;;;0.9;0.9;;;;;;;8.9;100.0;101820;;;;
2023/02/19 06:21:01;;;;;;;0.9;0.9;;;;;;;8.9;100.0;101820;;;;
2023/02/19 06:22:00;;;;;;;0.9;0.9;;;;;;;8.9;100.0;101820;;;;
2023/02/19 06:23:00;;;;;;;0.9;0.9;;;;;;;8.8;100.0;101820;;;;
2023/02/19 06:24:04;;;;;;;0.9;0.9;;;;;;;8.8;100.0;101820;;;;
2023/02/19 06:25:00;;;;;;;0.9;0.9;;;;;;;8.9;100.0;101830;;;;
2023/02/19 06:26:05;;;;;;;0.9;0.9;;;;;;;8.9;100.0;101830;;;;
2023/02/19 06:27:00;;;;;;;0.9;0.9;;;;;;;8.9;100.0;101830;;;;
2023/02/19 06:28:00;;;;;;;0.9;0.9;;;;;;;8.9;100.0;101830;;;;
2023/02/19 06:29:00;;;;;;;0.9;0.9;;;;;;;8.9;100.0;101830;;;;
2023/02/19 06:30:00;;;;;;;1.1;1.1;;;;;;;8.9;100.0;101830;;;;
2023/02/19 06:31:00;;;;;;;1.1;1.1;;;;;;;9.0;100.0;101830;;;;
2023/02/19 06:32:00;;;;;;;1.1;1.1;;;;;;;9.0;100.0;101830;;;;
2023/02/19 06:33:00;;;;;;;1.1;1.1;;;;;;;9.0;100.0;101830;;;;
2023/02/19 06:34:02;;;;;;;1.1;1.1;;;;;;;9.0;100.0;101830;;;;
2023/02/19 06:35:00;;;;;;;1.1;1.1;;;;;;;8.9;100.0;101840;;;;
2023/02/19 06:36:01;;;;;;;1.1;1.1;;;;;;;8.9;100.0;101840;;;;
2023/02/19 06:37:00;;;;;;;1.1;1.1;;;;;;;9.0;100.0;101840;;;;
2023/02/19 06:38:00;;;;;;;1.1;1.1;;;;;;;9.0;100.0;101840;;;;
2023/02/19 06:39:01;;;;;;;1.1;1.1;;;;;;;8.9;100.0;101850;;;;
2023/02/19 06:40:00;;;;;;;1.1;1.1;;;;;;;8.9;100.0;101850;;;;
2023/02/19 06:41:01;;;;;;;1.1;1.1;;;;;;;8.9;100.0;101860;;;;
2023/02/19 06:42:00;;;;;;;1.1;1.1;;;;;;;8.9;100.0;101860;;;;
2023/02/19 06:43:00;;;;;;;1.1;1.1;;;;;;;9.0;100.0;101860;;;;
2023/02/19 06:44:00;;;;;;;1.1;1.1;;;;;;;9.0;100.0;101860;;;;
2023/02/19 06:45:00;;;;;;;1.1;1.1;;;;;;;8.9;100.0;101860;;;;
2023/02/19 06:46:01;;;;;;;1.1;1.1;;;;;;;8.9;100.0;101860;;;;
2023/02/19 06:47:00;;;;;;;1.1;1.1;;;;;;;9.0;100.0;101870;;;;
2023/02/19 06:48:00;;;;;;;1.1;1.1;;;;;;;9.0;100.0;101870;;;;